createdAt,value
2019-01-22T00:02:15.494Z,38.67
2019-01-22T00:04:45.778Z,34.53
2019-01-22T00:07:15.929Z,38.80
2019-01-22T00:09:46.727Z,34.00
2019-01-22T00:12:17.178Z,35.03
2019-01-22T00:14:47.378Z,37.47
2019-01-22T00:17:17.769Z,36.17
2019-01-22T00:19:48.004Z,39.83
2019-01-22T00:22:18.329Z,37.20
2019-01-22T00:24:48.536Z,44.43
2019-01-22T00:27:18.854Z,37.03
2019-01-22T00:29:49.260Z,42.50
2019-01-22T00:32:19.578Z,34.23
2019-01-22T00:34:50.029Z,39.77
2019-01-22T00:37:20.226Z,52.83
2019-01-22T00:39:50.498Z,37.17
2019-01-22T00:42:20.614Z,38.15
2019-01-22T00:44:50.903Z,40.93
2019-01-22T00:47:21.743Z,41.87
2019-01-22T00:49:52.084Z,37.03
2019-01-22T00:52:22.393Z,35.80
2019-01-22T00:54:52.665Z,33.00
2019-01-22T00:57:22.828Z,35.23
2019-01-22T00:59:53.083Z,42.77
2019-01-22T01:02:23.285Z,36.90
2019-01-22T01:04:53.601Z,36.00
2019-01-22T01:07:23.833Z,39.80
2019-01-22T01:09:54.440Z,37.27
2019-01-22T01:12:24.734Z,37.53
2019-01-22T01:14:54.996Z,35.63
2019-01-22T01:17:25.273Z,34.07
2019-01-22T01:19:55.522Z,37.40
2019-01-22T01:22:25.639Z,29.80
2019-01-22T01:24:56.654Z,33.57
2019-01-22T01:27:26.857Z,36.88
2019-01-22T01:29:57.251Z,37.53
2019-01-22T01:32:27.554Z,33.93
2019-01-22T01:34:57.812Z,34.80
2019-01-22T01:37:28.180Z,33.60
2019-01-22T01:39:58.333Z,39.43
2019-01-22T01:42:29.172Z,35.25
2019-01-22T01:44:59.409Z,33.90
2019-01-22T01:47:29.732Z,34.17
2019-01-22T01:50:01.612Z,34.83
2019-01-22T01:52:31.828Z,32.67
2019-01-22T01:55:02.035Z,32.93
2019-01-22T01:57:32.285Z,34.73
2019-01-22T02:00:02.482Z,36.27
2019-01-22T02:02:32.971Z,35.33
2019-01-22T02:05:03.243Z,31.63
2019-01-22T02:07:33.988Z,30.80
2019-01-22T02:10:04.909Z,30.37
2019-01-22T02:12:43.074Z,32.20
2019-01-22T02:15:19.179Z,32.80
2019-01-22T02:18:31.164Z,32.73
2019-01-22T02:21:27.186Z,36.83
2019-01-22T02:24:53.735Z,29.57
2019-01-22T02:28:10.776Z,31.37
2019-01-22T02:31:27.705Z,33.80
2019-01-22T02:34:05.080Z,32.80
2019-01-22T02:37:05.571Z,30.07
2019-01-22T02:40:16.263Z,32.40
2019-01-22T02:43:34.074Z,34.38
2019-01-22T02:46:39.069Z,32.43
2019-01-22T02:50:06.431Z,31.70
2019-01-22T02:53:00.975Z,34.63
2019-01-22T02:56:03.238Z,32.90
2019-01-22T02:59:11.346Z,38.27
2019-01-22T03:02:15.920Z,33.53
2019-01-22T03:05:05.394Z,34.27
2019-01-22T03:08:18.803Z,31.70
2019-01-22T03:11:18.146Z,35.00
2019-01-22T03:14:31.921Z,32.20
2019-01-22T03:18:01.221Z,31.83
2019-01-22T03:21:09.429Z,36.77
2019-01-22T03:24:06.929Z,29.87
2019-01-22T03:26:52.290Z,33.73
2019-01-22T03:30:04.535Z,33.27
2019-01-22T03:33:28.149Z,30.27
2019-01-22T03:36:47.756Z,33.67
2019-01-22T03:39:58.020Z,34.13
2019-01-22T03:43:21.609Z,30.43
2019-01-22T03:46:08.352Z,31.40
2019-01-22T03:49:26.027Z,32.97
2019-01-22T03:52:33.394Z,35.20
2019-01-22T03:55:51.377Z,33.90
2019-01-22T03:58:21.822Z,35.93
2019-01-22T04:01:04.007Z,31.47
2019-01-22T04:03:34.511Z,34.60
2019-01-22T04:06:09.205Z,33.73
2019-01-22T04:08:41.311Z,36.43
2019-01-22T04:11:25.782Z,31.20
2019-01-22T04:13:55.968Z,33.87
2019-01-22T04:16:26.277Z,33.00
2019-01-22T04:18:56.514Z,29.20
2019-01-22T04:21:31.684Z,33.30
2019-01-22T04:24:39.117Z,36.13
2019-01-22T04:27:35.414Z,32.03
2019-01-22T04:31:11.171Z,34.40
2019-01-22T04:34:12.336Z,35.97
2019-01-22T04:36:53.511Z,34.40
2019-01-22T04:40:17.012Z,35.00
2019-01-22T04:43:28.152Z,33.92
2019-01-22T04:46:14.111Z,33.67
2019-01-22T04:49:43.460Z,31.67
2019-01-22T04:52:28.595Z,31.70
2019-01-22T04:55:54.130Z,38.00
2019-01-22T04:59:17.739Z,30.13
2019-01-22T05:02:12.975Z,30.23
2019-01-22T05:05:31.678Z,29.32
2019-01-22T05:08:46.686Z,31.43
2019-01-22T05:12:00.907Z,29.67
2019-01-22T05:14:54.736Z,34.50
2019-01-22T05:18:10.625Z,30.48
2019-01-22T05:21:19.710Z,32.77
2019-01-22T05:24:40.300Z,32.07
2019-01-22T05:27:44.746Z,33.57
2019-01-22T05:30:48.774Z,30.40
2019-01-22T05:33:59.594Z,31.10
2019-01-22T05:37:14.865Z,32.10
2019-01-22T05:40:17.685Z,29.00
2019-01-22T05:43:35.085Z,29.83
2019-01-22T05:46:33.232Z,29.27
2019-01-22T05:49:22.066Z,34.20
2019-01-22T05:52:29.818Z,33.00
2019-01-22T05:55:08.295Z,31.60
2019-01-22T05:58:05.048Z,33.67
2019-01-22T06:00:47.876Z,29.60
2019-01-22T06:03:49.095Z,43.73
2019-01-22T06:07:21.522Z,37.60
2019-01-22T06:10:17.801Z,31.97
2019-01-22T06:13:44.209Z,31.27
2019-01-22T06:17:01.135Z,29.87
2019-01-22T06:19:59.715Z,26.77
2019-01-22T06:23:05.827Z,26.50
2019-01-22T06:26:19.811Z,31.70
2019-01-22T06:29:34.110Z,44.77
2019-01-22T06:32:58.122Z,40.87
2019-01-22T06:36:03.210Z,42.90
2019-01-22T06:38:57.008Z,71.07
2019-01-22T06:42:32.580Z,42.97
2019-01-22T06:45:52.838Z,39.23
2019-01-22T06:48:41.019Z,37.50
2019-01-22T06:51:51.385Z,32.37
2019-01-22T06:54:42.891Z,48.63
2019-01-22T06:57:51.307Z,78.77
2019-01-22T07:01:05.388Z,28.10
2019-01-22T07:04:21.287Z,30.40
2019-01-22T07:07:17.697Z,29.23
2019-01-22T07:10:20.278Z,36.87
2019-01-22T07:13:12.514Z,26.77
2019-01-22T07:16:17.196Z,46.25
2019-01-22T07:19:19.341Z,43.50
2019-01-22T07:22:56.260Z,29.40
2019-01-22T07:25:58.211Z,32.53
2019-01-22T07:28:56.020Z,38.40
2019-01-22T07:31:38.042Z,28.00
2019-01-22T07:34:35.768Z,28.60
2019-01-22T07:37:36.706Z,26.73
2019-01-22T07:40:50.651Z,31.13
2019-01-22T07:43:39.572Z,29.48
2019-01-22T07:46:46.535Z,25.53
2019-01-22T07:49:58.676Z,22.10
2019-01-22T07:53:03.313Z,29.80
2019-01-22T07:56:17.301Z,40.83
2019-01-22T07:59:03.560Z,32.37
2019-01-22T08:01:55.909Z,23.73
2019-01-22T08:05:26.726Z,25.77
2019-01-22T08:08:52.354Z,27.58
2019-01-22T08:12:22.341Z,30.20
2019-01-22T08:15:31.153Z,29.20
2019-01-22T08:18:42.182Z,25.23
2019-01-22T08:21:52.412Z,28.97
2019-01-22T08:24:49.839Z,28.90
2019-01-22T08:28:15.711Z,27.97
2019-01-22T08:31:29.976Z,28.87
2019-01-22T08:34:21.415Z,27.10
2019-01-22T08:37:17.731Z,27.47
2019-01-22T08:39:59.162Z,29.93
2019-01-22T08:42:59.604Z,27.53
2019-01-22T08:45:54.845Z,26.10
2019-01-22T08:48:58.304Z,26.30
2019-01-22T08:51:55.657Z,26.80
2019-01-22T08:55:08.127Z,28.50
2019-01-22T08:58:19.010Z,28.90
2019-01-22T09:01:51.490Z,27.10
2019-01-22T09:04:59.209Z,29.33
2019-01-22T09:08:09.938Z,31.03
2019-01-22T09:11:32.500Z,33.20
2019-01-22T09:14:23.819Z,28.90
2019-01-22T09:17:30.901Z,28.93
2019-01-22T09:20:26.559Z,25.90
2019-01-22T09:23:22.481Z,27.87
2019-01-22T09:26:22.035Z,36.00
2019-01-22T09:29:35.694Z,30.03
2019-01-22T09:32:42.125Z,26.10
2019-01-22T09:35:58.872Z,29.80
2019-01-22T09:38:29.310Z,25.13
2019-01-22T09:40:59.543Z,28.40
2019-01-22T09:43:29.985Z,29.70
2019-01-22T09:46:00.595Z,31.10
2019-01-22T09:48:31.046Z,31.60
2019-01-22T09:51:01.326Z,27.90
2019-01-22T09:53:31.460Z,26.07
2019-01-22T09:56:01.612Z,28.80
2019-01-22T09:58:31.724Z,26.93
2019-01-22T10:01:02.219Z,32.10
2019-01-22T10:03:32.530Z,23.18
2019-01-22T10:06:03.204Z,27.03
2019-01-22T10:08:33.366Z,26.00
2019-01-22T10:11:03.739Z,21.97
2019-01-22T10:13:33.921Z,21.63
2019-01-22T10:16:04.292Z,27.67
2019-01-22T10:18:34.391Z,23.83
2019-01-22T10:21:04.781Z,23.10
2019-01-22T10:23:35.324Z,18.87
2019-01-22T10:26:05.921Z,21.10
2019-01-22T10:28:36.069Z,23.53
2019-01-22T10:31:07.327Z,25.97
2019-01-22T10:33:37.579Z,22.10
2019-01-22T10:36:07.797Z,21.47
2019-01-22T10:38:38.134Z,21.30
2019-01-22T10:41:08.356Z,23.90
2019-01-22T10:43:38.560Z,19.97
2019-01-22T10:46:09.060Z,26.77
2019-01-22T10:48:39.486Z,19.70
2019-01-22T10:51:09.848Z,19.27
2019-01-22T10:53:40.224Z,18.67
2019-01-22T10:56:10.486Z,21.10
2019-01-22T10:58:40.839Z,23.23
2019-01-22T11:01:11.795Z,19.13
2019-01-22T11:03:42.398Z,21.93
2019-01-22T11:06:12.918Z,20.67
2019-01-22T11:08:43.490Z,21.03
2019-01-22T11:11:13.744Z,21.43
2019-01-22T11:13:44.503Z,21.68
2019-01-22T11:16:16.372Z,18.80
2019-01-22T11:18:46.760Z,17.73
2019-01-22T11:21:17.683Z,21.10
2019-01-22T11:23:48.118Z,19.37
2019-01-22T11:26:18.672Z,22.47
2019-01-22T11:28:48.988Z,20.80
2019-01-22T11:31:19.993Z,19.67
2019-01-22T11:33:50.755Z,19.17
2019-01-22T11:36:23.472Z,22.53
2019-01-22T11:38:54.254Z,19.63
2019-01-22T11:41:24.793Z,21.77
2019-01-22T11:43:55.371Z,18.70
2019-01-22T11:46:25.960Z,22.60
2019-01-22T11:48:57.154Z,21.93
2019-01-22T11:51:27.611Z,18.77
2019-01-22T11:53:58.156Z,20.93
2019-01-22T11:56:29.432Z,21.73
2019-01-22T11:58:59.794Z,18.77
2019-01-22T12:01:30.931Z,23.23
2019-01-22T12:04:01.093Z,18.23
2019-01-22T12:06:31.402Z,19.20
2019-01-22T12:09:01.758Z,19.10
2019-01-22T12:11:33.002Z,22.40
2019-01-22T12:14:03.587Z,21.23
2019-01-22T12:16:33.985Z,17.87
2019-01-22T12:19:04.283Z,21.23
2019-01-22T12:21:34.652Z,20.83
2019-01-22T12:24:05.225Z,22.73
2019-01-22T12:26:35.690Z,19.90
2019-01-22T12:29:06.627Z,17.83
2019-01-22T12:31:37.238Z,20.53
2019-01-22T12:34:07.557Z,20.70
2019-01-22T12:36:37.919Z,18.13
2019-01-22T12:39:09.576Z,21.35
2019-01-22T12:41:39.969Z,20.47
2019-01-22T12:44:11.239Z,21.50
2019-01-22T12:46:41.470Z,28.70
2019-01-22T12:49:11.833Z,21.33
2019-01-22T12:51:42.083Z,21.40
2019-01-22T12:54:12.404Z,21.20
2019-01-22T12:56:46.818Z,21.87
2019-01-22T12:59:17.166Z,27.57
2019-01-22T13:01:47.887Z,31.53
2019-01-22T13:04:18.401Z,26.00
2019-01-22T13:06:48.770Z,22.67
2019-01-22T13:09:19.177Z,25.53
2019-01-22T13:11:50.042Z,23.95
2019-01-22T13:14:20.601Z,26.77
2019-01-22T13:16:51.271Z,23.27
2019-01-22T13:19:21.545Z,24.77
2019-01-22T13:21:52.080Z,23.30
2019-01-22T13:24:22.377Z,24.87
2019-01-22T13:26:53.599Z,31.37
2019-01-22T13:29:24.094Z,25.63
2019-01-22T13:31:54.755Z,26.03
2019-01-22T13:34:24.964Z,29.03
2019-01-22T13:36:55.202Z,29.40
2019-01-22T13:39:25.432Z,33.73
2019-01-22T13:41:55.820Z,31.70
2019-01-22T13:44:26.156Z,29.53
2019-01-22T13:46:59.030Z,29.10
2019-01-22T13:49:29.291Z,38.43
2019-01-22T13:51:59.742Z,27.95
2019-01-22T13:54:30.359Z,39.90
2019-01-22T13:57:02.356Z,31.07
2019-01-22T13:59:32.619Z,30.23
2019-01-22T14:02:04.254Z,33.63
2019-01-22T14:04:34.640Z,30.57
2019-01-22T14:07:05.110Z,33.83
2019-01-22T14:09:35.476Z,32.00
2019-01-22T14:12:05.707Z,30.57
2019-01-22T14:14:35.998Z,48.57
2019-01-22T14:17:06.363Z,29.60
2019-01-22T14:19:36.626Z,27.00
2019-01-22T14:22:06.926Z,33.43
2019-01-22T14:24:37.465Z,33.43
2019-01-22T14:27:07.694Z,30.17
2019-01-22T14:29:37.979Z,31.60
2019-01-22T14:32:08.231Z,29.17
2019-01-22T14:34:38.497Z,31.87
2019-01-22T14:37:08.810Z,28.40
2019-01-22T14:39:39.224Z,33.17
2019-01-22T14:42:09.738Z,32.48
2019-01-22T14:44:40.138Z,33.60
2019-01-22T14:47:10.320Z,34.17
2019-01-22T14:49:40.757Z,40.83
2019-01-22T14:52:11.451Z,27.90
2019-01-22T14:54:41.740Z,33.87
2019-01-22T14:57:12.030Z,30.27
2019-01-22T14:59:42.555Z,31.63
2019-01-22T15:02:13.216Z,33.80
2019-01-22T15:04:43.640Z,36.60
2019-01-22T15:07:14.090Z,35.67
2019-01-22T15:09:44.822Z,33.70
2019-01-22T15:12:15.240Z,26.50
2019-01-22T15:14:46.932Z,30.43
2019-01-22T15:17:17.468Z,31.37
2019-01-22T15:19:47.862Z,29.53
2019-01-22T15:22:18.606Z,30.63
2019-01-22T15:24:49.260Z,33.17
2019-01-22T15:27:20.156Z,29.43
2019-01-22T15:29:50.777Z,32.83
2019-01-22T15:32:21.581Z,30.90
2019-01-22T15:34:52.575Z,27.67
2019-01-22T15:37:23.019Z,30.00
2019-01-22T15:39:56.449Z,28.87
2019-01-22T15:42:25.659Z,34.77
2019-01-22T15:44:55.953Z,32.70
2019-01-22T15:47:26.895Z,33.23
2019-01-22T15:49:57.133Z,30.47
2019-01-22T15:52:27.481Z,31.57
2019-01-22T15:54:58.259Z,29.60
2019-01-22T15:57:28.577Z,29.60
2019-01-22T15:59:59.272Z,32.77
2019-01-22T16:02:30.121Z,35.87
2019-01-22T16:05:00.895Z,29.40
2019-01-22T16:07:31.570Z,29.92
2019-01-22T16:10:02.256Z,28.00
2019-01-22T16:12:32.788Z,27.33
2019-01-22T16:15:03.883Z,30.67
2019-01-22T16:17:37.056Z,26.95
2019-01-22T16:20:10.807Z,29.83
2019-01-22T16:22:42.457Z,27.33
2019-01-22T16:25:13.331Z,30.20
2019-01-22T16:27:44.372Z,32.53
2019-01-22T16:30:17.122Z,31.60
2019-01-22T16:32:47.933Z,27.37
2019-01-22T16:35:20.082Z,28.47
2019-01-22T16:37:51.188Z,30.40
2019-01-22T16:40:22.217Z,32.97
2019-01-22T16:42:52.808Z,32.07
2019-01-22T16:45:31.698Z,30.07
2019-01-22T16:48:02.369Z,32.10
2019-01-22T16:50:38.061Z,32.40
2019-01-22T16:53:17.633Z,33.23
2019-01-22T16:55:48.613Z,37.27
2019-01-22T16:58:20.195Z,41.07
2019-01-22T17:00:51.475Z,35.57
2019-01-22T17:03:22.288Z,28.23
2019-01-22T17:05:52.882Z,31.23
2019-01-22T17:08:23.893Z,29.90
2019-01-22T17:10:54.373Z,28.30
2019-01-22T17:13:25.429Z,27.27
2019-01-22T17:15:56.090Z,30.60
2019-01-22T17:18:26.586Z,41.23
2019-01-22T17:20:57.006Z,32.80
2019-01-22T17:23:29.703Z,36.80
2019-01-22T17:26:00.248Z,34.00
2019-01-22T17:28:30.924Z,33.03
2019-01-22T17:31:03.042Z,33.47
2019-01-22T17:33:40.506Z,31.25
2019-01-22T17:36:11.233Z,30.13
2019-01-22T17:38:41.698Z,35.20
2019-01-22T17:41:11.977Z,31.37
2019-01-22T17:43:42.541Z,28.93
2019-01-22T17:46:13.407Z,32.90
2019-01-22T17:48:43.781Z,29.50
2019-01-22T17:51:14.028Z,30.20
2019-01-22T17:53:44.745Z,28.60
2019-01-22T17:56:15.257Z,30.10
2019-01-22T17:58:46.703Z,27.27
2019-01-22T18:01:17.377Z,32.90
2019-01-22T18:03:47.842Z,29.83
2019-01-22T18:06:18.107Z,29.57
2019-01-22T18:08:48.811Z,31.43
2019-01-22T18:11:19.159Z,27.07
2019-01-22T18:13:49.552Z,29.53
2019-01-22T18:16:19.922Z,30.30
2019-01-22T18:18:50.256Z,27.70
2019-01-22T18:21:20.506Z,33.73
2019-01-22T18:23:51.195Z,36.03
2019-01-22T18:26:21.628Z,31.27
2019-01-22T18:28:51.876Z,30.90
2019-01-22T18:31:22.560Z,31.73
2019-01-22T18:33:52.880Z,25.70
2019-01-22T18:36:23.763Z,27.35
2019-01-22T18:38:54.328Z,31.30
2019-01-22T18:41:24.638Z,27.90
2019-01-22T18:43:55.057Z,28.03
2019-01-22T18:46:25.901Z,32.40
2019-01-22T18:48:56.293Z,35.83
2019-01-22T18:51:27.280Z,39.17
2019-01-22T18:53:57.794Z,31.63
2019-01-22T18:56:28.874Z,30.43
2019-01-22T18:58:59.437Z,30.47
2019-01-22T19:01:30.055Z,34.97
2019-01-22T19:04:04.261Z,35.03
2019-01-22T19:06:38.926Z,33.70
2019-01-22T19:09:09.688Z,35.03
2019-01-22T19:11:39.988Z,28.77
2019-01-22T19:14:10.690Z,29.90
2019-01-22T19:16:41.100Z,31.57
2019-01-22T19:19:11.548Z,34.63
2019-01-22T19:21:42.266Z,36.67
2019-01-22T19:24:12.838Z,36.50
2019-01-22T19:26:43.104Z,33.80
2019-01-22T19:29:13.639Z,33.20
2019-01-22T19:31:44.086Z,27.50
2019-01-22T19:34:14.500Z,29.40
2019-01-22T19:36:45.075Z,32.63
2019-01-22T19:39:15.467Z,31.93
2019-01-22T19:41:45.808Z,31.23
2019-01-22T19:44:16.218Z,32.33
2019-01-22T19:46:46.621Z,32.47
2019-01-22T19:49:17.500Z,27.13
2019-01-22T19:51:48.023Z,25.70
2019-01-22T19:54:18.723Z,26.70
2019-01-22T19:56:49.188Z,24.50
2019-01-22T19:59:19.468Z,30.67
2019-01-22T20:01:49.900Z,32.13
2019-01-22T20:04:22.011Z,31.70
2019-01-22T20:06:52.585Z,28.80
2019-01-22T20:09:22.833Z,30.50
2019-01-22T20:11:53.326Z,32.47
2019-01-22T20:14:23.549Z,28.80
2019-01-22T20:16:54.138Z,25.40
2019-01-22T20:19:24.639Z,27.17
2019-01-22T20:21:54.978Z,28.90
2019-01-22T20:24:25.320Z,27.15
2019-01-22T20:26:55.858Z,27.27
2019-01-22T20:29:26.530Z,28.33
2019-01-22T20:31:57.213Z,31.20
2019-01-22T20:34:27.917Z,30.17
2019-01-22T20:36:58.786Z,28.83
2019-01-22T20:39:29.256Z,27.13
2019-01-22T20:42:00.091Z,24.00
2019-01-22T20:44:30.646Z,29.30
2019-01-22T20:47:01.482Z,31.30
2019-01-22T20:49:31.963Z,31.57
2019-01-22T20:52:02.577Z,29.90
2019-01-22T20:54:33.972Z,29.37
2019-01-22T20:57:04.659Z,29.83
2019-01-22T20:59:35.179Z,30.47
2019-01-22T21:02:05.794Z,30.70
2019-01-22T21:04:36.250Z,32.80
2019-01-22T21:07:06.900Z,29.93
2019-01-22T21:09:39.067Z,33.40
2019-01-22T21:12:09.525Z,33.70
2019-01-22T21:14:39.954Z,33.00
2019-01-22T21:17:10.624Z,33.77
2019-01-22T21:19:41.049Z,32.80
2019-01-22T21:22:11.650Z,32.27
2019-01-22T21:24:42.211Z,29.27
2019-01-22T21:27:12.914Z,32.20
2019-01-22T21:29:43.190Z,33.63
2019-01-22T21:32:13.964Z,30.97
2019-01-22T21:34:44.361Z,34.43
2019-01-22T21:37:15.070Z,32.10
2019-01-22T21:39:45.621Z,32.80
2019-01-22T21:42:15.984Z,29.57
2019-01-22T21:44:46.305Z,32.17
2019-01-22T21:47:16.847Z,31.57
2019-01-22T21:49:47.257Z,28.67
2019-01-22T21:52:17.513Z,30.50
2019-01-22T21:54:47.782Z,31.75
2019-01-22T21:57:18.218Z,34.60
2019-01-22T21:59:49.052Z,29.10
2019-01-22T22:02:19.697Z,33.80
2019-01-22T22:04:50.296Z,32.40
2019-01-22T22:07:20.813Z,32.77
2019-01-22T22:09:51.028Z,34.23
2019-01-22T22:12:21.315Z,32.63
2019-01-22T22:14:54.218Z,26.37
2019-01-22T22:17:24.536Z,25.23
2019-01-22T22:19:54.674Z,28.30
2019-01-22T22:22:24.968Z,26.80
2019-01-22T22:24:55.224Z,29.20
2019-01-22T22:27:25.508Z,32.70
2019-01-22T22:29:55.632Z,28.00
2019-01-22T22:35:42.879Z,34.70
2019-01-22T22:38:13.156Z,30.60
2019-01-22T22:40:43.434Z,28.83
2019-01-22T22:43:14.657Z,29.20
2019-01-22T22:45:46.289Z,31.97
2019-01-22T22:48:16.533Z,30.30
2019-01-22T22:50:46.694Z,27.93
2019-01-22T22:53:16.973Z,31.67
2019-01-22T22:55:47.208Z,29.03
2019-01-22T22:58:21.876Z,31.90
2019-01-22T23:01:21.527Z,29.13
2019-01-22T23:03:52.939Z,30.90
2019-01-22T23:06:23.272Z,30.93
2019-01-22T23:08:55.597Z,28.33
2019-01-22T23:11:25.736Z,31.40
2019-01-22T23:13:56.224Z,29.92
2019-01-22T23:16:26.354Z,28.57
2019-01-22T23:18:56.964Z,31.87
2019-01-22T23:21:27.264Z,33.37
2019-01-22T23:23:57.510Z,36.40
2019-01-22T23:26:27.633Z,34.10
2019-01-22T23:28:57.945Z,32.00
2019-01-22T23:31:28.208Z,35.93
2019-01-22T23:33:59.219Z,35.07
2019-01-22T23:36:29.372Z,33.10
2019-01-22T23:38:59.793Z,34.60
2019-01-22T23:41:30.175Z,34.67
2019-01-22T23:44:01.849Z,35.10
2019-01-22T23:46:32.052Z,37.00
2019-01-22T23:49:02.185Z,30.32
2019-01-22T23:51:32.482Z,31.53
2019-01-22T23:54:02.752Z,32.43
2019-01-22T23:56:34.054Z,34.20
2019-01-22T23:59:04.373Z,29.93
